logo



Minimumtemperatur heute 14.2     Maximumtemperatur heute 27.5
Datum Zeit
MEZ
Lufttemperatur
C
Windrichtung
Grad
Wind Mittel
Km/h
Wind Min
Km/h
Wind Max
Km/h
rel. Feuchte
%
2018-07-20 12:50:00 27.4 49 0.8 1.1 6.4 49
2018-07-20 12:45:00 27.5 16 0.6 1.2 3.9 49
2018-07-20 12:40:00 27.5 20 1.0 0.5 6.8 46
2018-07-20 12:35:00 27.5 48 0.8 1.3 5.0 50
2018-07-20 12:30:00 27.2 176 1.2 1.1 8.8 50
2018-07-20 12:25:00 27.0 91 1.8 3.1 9.4 49
2018-07-20 12:20:00 26.9 326 0.9 0.4 5.9 48
2018-07-20 12:15:00 27.2 25 0.8 0.7 5.4 48
2018-07-20 12:10:00 27.1 228 0.5 0.4 3.2 45
2018-07-20 12:05:00 26.9 160 0.9 0.5 7.3 47
2018-07-20 12:00:00 26.8 123 0.6 0.4 5.3 45
2018-07-20 11:55:00 26.4 13 0.7 0.5 5.0 48
2018-07-20 11:50:00 26.0 307 0.4 0.2 3.6 50
2018-07-20 11:45:00 25.6 274 0.6 0.4 4.5 49
2018-07-20 11:40:00 25.1 207 0.6 1.1 4.4 51
2018-07-20 11:35:00 24.9 236 0.9 2.4 4.4 54
2018-07-20 11:30:00 24.7 262 1.4 4.5 5.8 53
2018-07-20 11:25:00 24.6 261 1.5 4.6 6.0 55
2018-07-20 11:20:00 24.5 269 1.8 5.6 7.7 52
2018-07-20 11:15:00 24.4 277 2.1 6.7 8.8 55
2018-07-20 11:10:00 24.4 260 1.9 6.0 8.0 53
2018-07-20 11:05:00 24.3 263 1.6 4.4 6.7 54
2018-07-20 11:00:00 24.3 263 1.3 3.4 5.9 53
2018-07-20 10:55:00 24.2 276 1.5 4.2 6.1 54
2018-07-20 10:50:00 24.2 274 1.4 4.0 6.9 54
2018-07-20 10:45:00 24.0 287 1.2 3.2 5.3 54
2018-07-20 10:40:00 23.9 280 1.0 2.1 5.0 55
2018-07-20 10:35:00 23.9 287 1.0 1.4 5.5 56
2018-07-20 10:30:00 24.0 294 0.6 0.8 3.2 54
2018-07-20 10:25:00 23.7 285 0.7 1.6 4.0 57
2018-07-20 10:20:00 23.4 198 0.7 1.8 3.8 59
2018-07-20 10:15:00 23.0 263 1.1 2.7 5.4 61
2018-07-20 10:10:00 22.9 275 0.9 1.0 4.6 61
2018-07-20 10:05:00 22.7 299 0.9 2.7 4.2 63
2018-07-20 10:00:00 22.6 292 0.9 2.7 3.7 61
2018-07-20 09:55:00 22.5 284 0.7 1.7 3.8 63
2018-07-20 09:50:00 22.5 268 0.8 1.8 4.6 63
2018-07-20 09:45:00 22.2 309 1.0 2.8 4.9 63
2018-07-20 09:40:00 22.1 294 0.9 1.7 4.4 63
2018-07-20 09:35:00 22.0 299 1.1 3.3 4.6 61
2018-07-20 09:30:00 21.8 308 1.2 3.6 4.8 61
2018-07-20 09:25:00 21.8 303 1.2 3.2 5.2 62
2018-07-20 09:20:00 21.7 306 0.9 2.0 4.5 62
2018-07-20 09:15:00 21.7 334 0.5 0.3 3.6 64
2018-07-20 09:10:00 21.5 359 0.5 1.0 2.5 67
2018-07-20 09:05:00 21.3 308 0.5 0.4 3.6 65
2018-07-20 09:00:00 21.2 306 0.6 0.4 3.9 65
2018-07-20 08:55:00 21.1 280 0.4 1.1 2.2 64
2018-07-20 08:50:00 21.0 282 0.5 0.9 2.9 63
2018-07-20 08:45:00 21.1 271 0.2 0.2 1.5 63
2018-07-20 08:40:00 21.1 263 0.1 0.0 1.2 64
2018-07-20 08:35:00 20.5 249 0.2 0.0 2.2 67
2018-07-20 08:30:00 20.3 258 0.4 0.7 2.4 70
2018-07-20 08:25:00 20.3 254 0.2 0.0 2.1 70
2018-07-20 08:20:00 19.9 254 0.4 0.9 2.3 69
2018-07-20 08:15:00 19.9 265 0.5 1.1 4.3 71
2018-07-20 08:10:00 19.7 234 0.5 0.8 3.3 71
2018-07-20 08:05:00 19.7 226 0.3 0.0 1.9 71
2018-07-20 08:00:00 19.7 244 0.5 0.2 4.0 71
2018-07-20 07:55:00 20.0 252 0.3 0.1 2.8 72
2018-07-20 07:50:00 19.8 193 0.4 0.3 3.2 72
2018-07-20 07:45:00 19.4 116 0.4 0.0 4.1 74
2018-07-20 07:40:00 19.1 242 0.4 0.2 2.7 75
2018-07-20 07:35:00 19.1 246 0.4 0.3 2.5 75
2018-07-20 07:30:00 19.3 174 0.5 0.0 3.6 75
2018-07-20 07:25:00 19.1 155 0.6 0.0 4.9 75
2018-07-20 07:20:00 19.2 192 0.4 0.4 2.6 76
2018-07-20 07:15:00 19.0 176 0.4 0.0 4.4 77
2018-07-20 07:10:00 18.7 121 0.3 0.2 2.6 78
2018-07-20 07:05:00 18.5 171 0.7 0.6 5.0 81
2018-07-20 07:00:00 18.4 139 0.6 0.0 5.1 81
2018-07-20 06:55:00 18.1 84 0.5 0.5 3.2 81
2018-07-20 06:50:00 18.1 126 0.4 0.0 3.2 81
2018-07-20 06:45:00 18.0 177 0.2 0.0 1.8 82
2018-07-20 06:40:00 17.8 218 0.0 0.0 0.9 82
2018-07-20 06:35:00 17.4 164 0.1 0.0 1.2 83
2018-07-20 06:30:00 17.1 148 0.2 0.1 1.7 83
2018-07-20 06:25:00 16.8 163 0.4 0.3 2.0 84
2018-07-20 06:20:00 16.5 140 0.5 1.3 2.6 83
2018-07-20 06:15:00 16.2 139 0.3 0.9 1.8 85
2018-07-20 06:10:00 16.0 139 0.4 1.0 2.0 84
2018-07-20 06:05:00 15.8 140 0.5 1.2 2.6 85
2018-07-20 06:00:00 15.7 121 0.5 1.3 2.5 85
2018-07-20 05:55:00 15.4 121 0.5 1.3 2.3 86
2018-07-20 05:50:00 15.3 121 0.5 1.2 2.5 87
2018-07-20 05:45:00 15.1 114 0.6 1.2 3.0 87
2018-07-20 05:40:00 15.0 103 0.5 1.0 2.8 88
2018-07-20 05:35:00 14.8 111 0.3 0.5 1.6 88
2018-07-20 05:30:00 14.7 109 0.3 0.4 1.9 89
2018-07-20 05:25:00 14.5 112 0.2 0.1 1.7 89
2018-07-20 05:20:00 14.5 116 0.3 0.8 1.5 89
2018-07-20 05:15:00 14.3 115 0.4 1.0 1.8 90
2018-07-20 05:10:00 14.4 109 0.4 0.8 2.5 90
2018-07-20 05:05:00 14.3 117 0.5 1.4 2.5 90
2018-07-20 05:00:00 14.2 130 0.5 1.2 2.1 90
2018-07-20 04:55:00 14.3 114 0.5 1.0 2.7 89
2018-07-20 04:50:00 14.4 108 0.7 1.2 3.6 89
2018-07-20 04:45:00 14.4 105 0.7 2.0 3.3 89
2018-07-20 04:40:00 14.5 101 0.4 0.4 2.8 89
2018-07-20 04:35:00 14.5 101 0.6 1.0 2.9 89
2018-07-20 04:30:00 14.6 114 0.6 1.3 2.5 89
2018-07-20 04:25:00 14.8 102 0.4 0.8 2.4 88
2018-07-20 04:20:00 15.0 116 0.5 1.2 2.2 88
2018-07-20 04:15:00 15.1 124 0.6 1.4 3.3 87
2018-07-20 04:10:00 15.1 135 0.8 2.7 3.5 88
2018-07-20 04:05:00 14.9 125 0.6 1.3 3.0 88
2018-07-20 04:00:00 14.8 138 0.4 0.6 2.1 88
2018-07-20 03:55:00 14.9 103 0.6 1.0 2.6 88
2018-07-20 03:50:00 14.9 112 0.6 1.7 2.5 88
2018-07-20 03:45:00 14.9 117 0.6 1.9 2.4 88
2018-07-20 03:40:00 15.3 108 0.4 0.1 2.3 86
2018-07-20 03:35:00 15.7 90 0.3 0.0 2.3 85
2018-07-20 03:30:00 15.8 70 0.2 0.1 1.5 83
2018-07-20 03:25:00 15.6 93 0.3 0.7 1.6 85
2018-07-20 03:20:00 15.4 99 0.2 0.4 1.5 87
2018-07-20 03:15:00 15.5 93 0.4 0.2 2.4 87
2018-07-20 03:10:00 15.4 80 0.3 0.2 2.4 87
2018-07-20 03:05:00 15.2 105 0.1 0.2 1.0 87
2018-07-20 03:00:00 15.2 105 0.2 0.2 1.2 87
2018-07-20 02:55:00 15.3 105 0.1 0.0 1.1 86
2018-07-20 02:50:00 15.4 104 0.5 1.1 2.2 86
2018-07-20 02:45:00 15.3 139 0.5 1.2 3.3 86
2018-07-20 02:40:00 15.4 152 0.6 1.5 3.3 85
2018-07-20 02:35:00 15.6 115 0.7 1.9 2.8 84
2018-07-20 02:30:00 16.1 106 0.6 1.4 3.1 82
2018-07-20 02:25:00 16.3 74 0.3 0.6 1.7 81
2018-07-20 02:20:00 16.3 63 0.3 0.3 2.3 80
2018-07-20 02:15:00 16.3 58 0.3 0.3 2.2 81
2018-07-20 02:10:00 16.1 46 0.0 0.0 0.6 84
2018-07-20 02:05:00 16.0 4 0.1 0.1 0.6 85
2018-07-20 02:00:00 16.2 89 0.1 0.0 0.7 85
2018-07-20 01:55:00 16.2 128 0.2 0.2 1.0 85
2018-07-20 01:50:00 16.2 123 0.5 0.6 2.4 85
2018-07-20 01:45:00 16.2 100 0.5 0.8 2.4 85
2018-07-20 01:40:00 16.2 91 0.4 0.8 2.1 85
2018-07-20 01:35:00 16.1 123 0.5 1.3 3.3 86
2018-07-20 01:30:00 15.8 131 0.8 2.2 3.6 88
2018-07-20 01:25:00 15.8 122 0.5 1.4 2.2 87
2018-07-20 01:20:00 16.1 109 0.2 0.0 1.6 86
2018-07-20 01:15:00 16.3 106 0.5 0.3 2.8 86
2018-07-20 01:10:00 16.5 105 0.7 1.9 3.2 85
2018-07-20 01:05:00 16.6 106 0.7 1.7 3.1 86
2018-07-20 01:00:00 16.8 102 0.3 0.5 1.9 84
2018-07-20 00:55:00 16.7 85 0.2 0.1 1.7 85
www.zamg.ac.at

klagenfurt@zamg.ac.at